sensor_id;sensor_type;location;lat;lon;timestamp;pressure;altitude;pressure_sealevel;temperature
31528;BMP280;10206;48.012;10.030;2023-03-23T00:01:11;94360.78;;;11.01
31528;BMP280;10206;48.012;10.030;2023-03-23T00:03:39;94360.06;;;11.01
31528;BMP280;10206;48.012;10.030;2023-03-23T00:06:05;94357.75;;;11.07
31528;BMP280;10206;48.012;10.030;2023-03-23T00:08:37;94356.59;;;11.10
31528;BMP280;10206;48.012;10.030;2023-03-23T00:11:04;94358.47;;;11.08
31528;BMP280;10206;48.012;10.030;2023-03-23T00:13:31;94350.88;;;11.06
31528;BMP280;10206;48.012;10.030;2023-03-23T00:15:57;94357.75;;;11.07
31528;BMP280;10206;48.012;10.030;2023-03-23T00:18:23;94356.03;;;11.02
31528;BMP280;10206;48.012;10.030;2023-03-23T00:20:52;94358.66;;;11.00
31528;BMP280;10206;48.012;10.030;2023-03-23T00:23:20;94348.72;;;11.05
31528;BMP280;10206;48.012;10.030;2023-03-23T00:25:54;94357.38;;;10.91
31528;BMP280;10206;48.012;10.030;2023-03-23T00:28:25;94356.09;;;10.92
31528;BMP280;10206;48.012;10.030;2023-03-23T00:31:01;94352.06;;;10.84
31528;BMP280;10206;48.012;10.030;2023-03-23T00:33:30;94350.78;;;10.85
31528;BMP280;10206;48.012;10.030;2023-03-23T00:35:56;94357.06;;;10.87
31528;BMP280;10206;48.012;10.030;2023-03-23T00:38:23;94356.78;;;10.93
31528;BMP280;10206;48.012;10.030;2023-03-23T00:40:49;94345.59;;;10.89
31528;BMP280;10206;48.012;10.030;2023-03-23T00:43:17;94342.00;;;10.86
31528;BMP280;10206;48.012;10.030;2023-03-23T00:45:44;94345.72;;;10.91
31528;BMP280;10206;48.012;10.030;2023-03-23T00:48:15;94342.31;;;10.81
31528;BMP280;10206;48.012;10.030;2023-03-23T00:50:41;94349.50;;;10.76
31528;BMP280;10206;48.012;10.030;2023-03-23T00:53:07;94353.38;;;10.54
31528;BMP280;10206;48.012;10.030;2023-03-23T00:55:33;94342.47;;;10.35
31528;BMP280;10206;48.012;10.030;2023-03-23T00:58:00;94338.59;;;10.67
31528;BMP280;10206;48.012;10.030;2023-03-23T01:00:26;94330.81;;;10.73
31528;BMP280;10206;48.012;10.030;2023-03-23T01:02:55;94333.69;;;10.84
31528;BMP280;10206;48.012;10.030;2023-03-23T01:05:21;94334.81;;;10.91
31528;BMP280;10206;48.012;10.030;2023-03-23T01:07:48;94329.50;;;10.93
31528;BMP280;10206;48.012;10.030;2023-03-23T01:10:14;94330.47;;;11.07
31528;BMP280;10206;48.012;10.030;2023-03-23T01:12:43;94331.19;;;11.08
31528;BMP280;10206;48.012;10.030;2023-03-23T01:15:14;94328.00;;;11.11
31528;BMP280;10206;48.012;10.030;2023-03-23T01:17:42;94329.44;;;11.22
31528;BMP280;10206;48.012;10.030;2023-03-23T01:20:08;94322.19;;;11.26
31528;BMP280;10206;48.012;10.030;2023-03-23T01:22:35;94318.81;;;11.47
31528;BMP280;10206;48.012;10.030;2023-03-23T01:25:01;94302.50;;;11.37
31528;BMP280;10206;48.012;10.030;2023-03-23T01:27:28;94319.63;;;11.28
31528;BMP280;10206;48.012;10.030;2023-03-23T01:29:54;94307.44;;;11.20
31528;BMP280;10206;48.012;10.030;2023-03-23T01:32:20;94307.44;;;11.29
31528;BMP280;10206;48.012;10.030;2023-03-23T01:34:46;94304.13;;;11.21
31528;BMP280;10206;48.012;10.030;2023-03-23T01:37:12;94299.75;;;11.37
31528;BMP280;10206;48.012;10.030;2023-03-23T01:39:39;94302.75;;;11.41
31528;BMP280;10206;48.012;10.030;2023-03-23T01:42:07;94300.31;;;11.45
31528;BMP280;10206;48.012;10.030;2023-03-23T01:46:59;94300.66;;;11.30
31528;BMP280;10206;48.012;10.030;2023-03-23T01:49:40;94303.66;;;11.34
31528;BMP280;10206;48.012;10.030;2023-03-23T01:52:13;94301.22;;;11.59
31528;BMP280;10206;48.012;10.030;2023-03-23T01:54:43;94295.91;;;11.61
31528;BMP280;10206;48.012;10.030;2023-03-23T01:57:15;94301.22;;;11.59
31528;BMP280;10206;48.012;10.030;2023-03-23T01:59:45;94291.28;;;11.64
31528;BMP280;10206;48.012;10.030;2023-03-23T02:02:12;94302.94;;;11.64
31528;BMP280;10206;48.012;10.030;2023-03-23T02:04:39;94305.47;;;11.72
31528;BMP280;10206;48.012;10.030;2023-03-23T02:07:07;94299.81;;;11.80
31528;BMP280;10206;48.012;10.030;2023-03-23T02:09:34;94290.19;;;11.79
31528;BMP280;10206;48.012;10.030;2023-03-23T02:12:00;94291.88;;;11.84
31528;BMP280;10206;48.012;10.030;2023-03-23T02:14:27;94289.41;;;12.09
31528;BMP280;10206;48.012;10.030;2023-03-23T02:17:32;94296.34;;;12.00
31528;BMP280;10206;48.012;10.030;2023-03-23T02:20:12;94298.66;;;12.04
31528;BMP280;10206;48.012;10.030;2023-03-23T02:25:45;94300.47;;;12.11
31528;BMP280;10206;48.012;10.030;2023-03-23T02:33:52;94295.13;;;12.13
31528;BMP280;10206;48.012;10.030;2023-03-23T02:36:34;94296.03;;;12.06
31528;BMP280;10206;48.012;10.030;2023-03-23T02:39:14;94300.69;;;12.03
31528;BMP280;10206;48.012;10.030;2023-03-23T02:41:51;94303.19;;;12.11
31528;BMP280;10206;48.012;10.030;2023-03-23T02:44:19;94306.13;;;12.24
31528;BMP280;10206;48.012;10.030;2023-03-23T02:46:45;94301.88;;;12.12
31528;BMP280;10206;48.012;10.030;2023-03-23T02:49:15;94291.66;;;12.12
31528;BMP280;10206;48.012;10.030;2023-03-23T02:51:44;94290.16;;;12.21
31528;BMP280;10206;48.012;10.030;2023-03-23T02:54:13;94290.16;;;12.21
31528;BMP280;10206;48.012;10.030;2023-03-23T02:56:41;94296.53;;;12.14
31528;BMP280;10206;48.012;10.030;2023-03-23T02:59:08;94297.19;;;12.24
31528;BMP280;10206;48.012;10.030;2023-03-23T03:04:07;94295.00;;;12.32
31528;BMP280;10206;48.012;10.030;2023-03-23T03:11:55;94300.56;;;12.34
31528;BMP280;10206;48.012;10.030;2023-03-23T03:14:33;94306.16;;;12.36
31528;BMP280;10206;48.012;10.030;2023-03-23T03:17:08;94310.19;;;12.02
31528;BMP280;10206;48.012;10.030;2023-03-23T03:19:38;94302.22;;;12.39
31528;BMP280;10206;48.012;10.030;2023-03-23T03:22:06;94295.50;;;12.19
31528;BMP280;10206;48.012;10.030;2023-03-23T03:24:34;94304.34;;;12.62
31528;BMP280;10206;48.012;10.030;2023-03-23T03:27:05;94300.66;;;12.24
31528;BMP280;10206;48.012;10.030;2023-03-23T03:29:39;94312.41;;;12.48
31528;BMP280;10206;48.012;10.030;2023-03-23T03:32:11;94310.31;;;12.58
31528;BMP280;10206;48.012;10.030;2023-03-23T03:34:38;94326.66;;;12.79
31528;BMP280;10206;48.012;10.030;2023-03-23T03:37:05;94320.09;;;12.84
31528;BMP280;10206;48.012;10.030;2023-03-23T03:39:35;94335.84;;;12.95
31528;BMP280;10206;48.012;10.030;2023-03-23T03:42:02;94318.53;;;12.70
31528;BMP280;10206;48.012;10.030;2023-03-23T03:44:29;94329.28;;;12.77
31528;BMP280;10206;48.012;10.030;2023-03-23T03:46:55;94323.91;;;12.79
31528;BMP280;10206;48.012;10.030;2023-03-23T03:49:21;94322.38;;;12.55
31528;BMP280;10206;48.012;10.030;2023-03-23T03:51:48;94320.38;;;12.56
31528;BMP280;10206;48.012;10.030;2023-03-23T03:54:14;94309.81;;;12.62
31528;BMP280;10206;48.012;10.030;2023-03-23T03:56:41;94331.28;;;12.77
31528;BMP280;10206;48.012;10.030;2023-03-23T03:59:08;94329.03;;;12.85
31528;BMP280;10206;48.012;10.030;2023-03-23T04:01:36;94334.50;;;12.85
31528;BMP280;10206;48.012;10.030;2023-03-23T04:04:03;94338.66;;;12.74
31528;BMP280;10206;48.012;10.030;2023-03-23T04:06:30;94325.47;;;12.49
31528;BMP280;10206;48.012;10.030;2023-03-23T04:08:59;94327.81;;;12.76
31528;BMP280;10206;48.012;10.030;2023-03-23T04:11:27;94318.91;;;12.87
31528;BMP280;10206;48.012;10.030;2023-03-23T04:13:53;94315.59;;;12.89
31528;BMP280;10206;48.012;10.030;2023-03-23T04:16:19;94317.94;;;12.71
31528;BMP280;10206;48.012;10.030;2023-03-23T04:18:46;94316.63;;;12.72
31528;BMP280;10206;48.012;10.030;2023-03-23T04:21:13;94312.97;;;12.79
31528;BMP280;10206;48.012;10.030;2023-03-23T04:23:40;94300.50;;;12.55
31528;BMP280;10206;48.012;10.030;2023-03-23T04:26:06;94285.91;;;12.62
31528;BMP280;10206;48.012;10.030;2023-03-23T04:28:32;94278.81;;;12.36
31528;BMP280;10206;48.012;10.030;2023-03-23T04:31:00;94266.53;;;12.25
31528;BMP280;10206;48.012;10.030;2023-03-23T04:33:28;94263.28;;;12.50
31528;BMP280;10206;48.012;10.030;2023-03-23T04:35:59;94252.13;;;12.58
31528;BMP280;10206;48.012;10.030;2023-03-23T04:38:27;94254.09;;;12.45
31528;BMP280;10206;48.012;10.030;2023-03-23T04:40:54;94245.81;;;12.67
31528;BMP280;10206;48.012;10.030;2023-03-23T04:43:22;94244.94;;;12.41
31528;BMP280;10206;48.012;10.030;2023-03-23T04:45:53;94242.28;;;12.64
31528;BMP280;10206;48.012;10.030;2023-03-23T04:48:23;94225.50;;;12.81
31528;BMP280;10206;48.012;10.030;2023-03-23T04:50:49;94222.75;;;12.58
31528;BMP280;10206;48.012;10.030;2023-03-23T04:53:17;94212.75;;;12.63
31528;BMP280;10206;48.012;10.030;2023-03-23T04:55:44;94218.81;;;12.61
31528;BMP280;10206;48.012;10.030;2023-03-23T04:58:11;94220.59;;;12.45
31528;BMP280;10206;48.012;10.030;2023-03-23T05:00:40;94220.44;;;12.43
31528;BMP280;10206;48.012;10.030;2023-03-23T05:03:10;94224.25;;;12.38
31528;BMP280;10206;48.012;10.030;2023-03-23T05:05:37;94223.31;;;12.12
31528;BMP280;10206;48.012;10.030;2023-03-23T05:08:04;94232.31;;;12.24
31528;BMP280;10206;48.012;10.030;2023-03-23T05:10:30;94218.09;;;12.16
31528;BMP280;10206;48.012;10.030;2023-03-23T05:12:56;94230.75;;;12.33
31528;BMP280;10206;48.012;10.030;2023-03-23T05:15:22;94229.81;;;12.28
31528;BMP280;10206;48.012;10.030;2023-03-23T05:17:50;94223.78;;;12.41
31528;BMP280;10206;48.012;10.030;2023-03-23T05:20:17;94223.69;;;12.51
31528;BMP280;10206;48.012;10.030;2023-03-23T05:22:48;94220.50;;;12.66
31528;BMP280;10206;48.012;10.030;2023-03-23T05:25:16;94226.78;;;12.57
31528;BMP280;10206;48.012;10.030;2023-03-23T05:27:45;94223.56;;;12.61
31528;BMP280;10206;48.012;10.030;2023-03-23T05:30:15;94222.50;;;12.54
31528;BMP280;10206;48.012;10.030;2023-03-23T05:32:43;94222.13;;;12.60
31528;BMP280;10206;48.012;10.030;2023-03-23T05:35:11;94215.16;;;12.91
31528;BMP280;10206;48.012;10.030;2023-03-23T05:37:38;94211.31;;;12.73
31528;BMP280;10206;48.012;10.030;2023-03-23T05:40:05;94215.88;;;12.92
31528;BMP280;10206;48.012;10.030;2023-03-23T05:42:36;94219.34;;;12.92
31528;BMP280;10206;48.012;10.030;2023-03-23T05:45:05;94221.69;;;12.86
31528;BMP280;10206;48.012;10.030;2023-03-23T05:47:32;94220.97;;;12.97
31528;BMP280;10206;48.012;10.030;2023-03-23T05:49:58;94220.63;;;13.03
31528;BMP280;10206;48.012;10.030;2023-03-23T05:52:24;94227.78;;;13.31
31528;BMP280;10206;48.012;10.030;2023-03-23T05:54:51;94234.03;;;13.45
31528;BMP280;10206;48.012;10.030;2023-03-23T05:57:18;94238.53;;;13.64
31528;BMP280;10206;48.012;10.030;2023-03-23T05:59:44;94238.81;;;13.45
31528;BMP280;10206;48.012;10.030;2023-03-23T06:02:11;94243.03;;;13.71
31528;BMP280;10206;48.012;10.030;2023-03-23T06:04:39;94241.88;;;13.74
31528;BMP280;10206;48.012;10.030;2023-03-23T06:07:07;94242.00;;;13.53
31528;BMP280;10206;48.012;10.030;2023-03-23T06:09:33;94248.91;;;14.02
31528;BMP280;10206;48.012;10.030;2023-03-23T06:12:00;94241.34;;;14.14
31528;BMP280;10206;48.012;10.030;2023-03-23T06:14:26;94245.50;;;14.40
31528;BMP280;10206;48.012;10.030;2023-03-23T06:16:52;94242.38;;;14.46
31528;BMP280;10206;48.012;10.030;2023-03-23T06:19:18;94249.22;;;14.58
31528;BMP280;10206;48.012;10.030;2023-03-23T06:21:44;94249.06;;;14.43
31528;BMP280;10206;48.012;10.030;2023-03-23T06:24:10;94252.78;;;14.61
31528;BMP280;10206;48.012;10.030;2023-03-23T06:26:38;94254.72;;;14.58
31528;BMP280;10206;48.012;10.030;2023-03-23T06:29:07;94254.13;;;14.73
31528;BMP280;10206;48.012;10.030;2023-03-23T06:31:42;94257.94;;;14.94
31528;BMP280;10206;48.012;10.030;2023-03-23T06:34:09;94259.25;;;15.06
31528;BMP280;10206;48.012;10.030;2023-03-23T06:36:36;94262.16;;;15.22
31528;BMP280;10206;48.012;10.030;2023-03-23T06:39:03;94264.88;;;15.22
31528;BMP280;10206;48.012;10.030;2023-03-23T06:41:33;94266.81;;;15.33
31528;BMP280;10206;48.012;10.030;2023-03-23T06:44:00;94264.56;;;15.43
31528;BMP280;10206;48.012;10.030;2023-03-23T06:46:27;94257.03;;;15.30
31528;BMP280;10206;48.012;10.030;2023-03-23T06:48:53;94255.31;;;15.36
31528;BMP280;10206;48.012;10.030;2023-03-23T06:51:19;94255.94;;;15.21
31528;BMP280;10206;48.012;10.030;2023-03-23T06:53:46;94253.16;;;15.35
31528;BMP280;10206;48.012;10.030;2023-03-23T06:56:12;94257.34;;;15.49
31528;BMP280;10206;48.012;10.030;2023-03-23T06:58:39;94255.81;;;15.46
31528;BMP280;10206;48.012;10.030;2023-03-23T07:01:06;94258.94;;;15.54
31528;BMP280;10206;48.012;10.030;2023-03-23T07:03:32;94264.06;;;15.60
31528;BMP280;10206;48.012;10.030;2023-03-23T07:05:59;94261.38;;;15.76
31528;BMP280;10206;48.012;10.030;2023-03-23T07:08:25;94263.69;;;15.81
31528;BMP280;10206;48.012;10.030;2023-03-23T07:10:53;94262.38;;;15.82
31528;BMP280;10206;48.012;10.030;2023-03-23T07:13:20;94271.31;;;15.96
31528;BMP280;10206;48.012;10.030;2023-03-23T07:15:46;94268.56;;;15.96
31528;BMP280;10206;48.012;10.030;2023-03-23T07:18:14;94279.47;;;16.23
31528;BMP280;10206;48.012;10.030;2023-03-23T07:20:40;94278.97;;;16.42
31528;BMP280;10206;48.012;10.030;2023-03-23T07:23:06;94281.38;;;16.34
31528;BMP280;10206;48.012;10.030;2023-03-23T07:25:34;94267.47;;;16.93
31528;BMP280;10206;48.012;10.030;2023-03-23T07:28:01;94279.34;;;17.13
31528;BMP280;10206;48.012;10.030;2023-03-23T07:30:28;94287.31;;;17.38
31528;BMP280;10206;48.012;10.030;2023-03-23T07:32:58;94283.84;;;17.53
31528;BMP280;10206;48.012;10.030;2023-03-23T07:35:24;94283.00;;;17.66
31528;BMP280;10206;48.012;10.030;2023-03-23T07:37:51;94286.50;;;17.84
31528;BMP280;10206;48.012;10.030;2023-03-23T07:40:18;94286.97;;;17.79
31528;BMP280;10206;48.012;10.030;2023-03-23T07:42:46;94292.56;;;17.81
31528;BMP280;10206;48.012;10.030;2023-03-23T07:45:17;94311.88;;;17.81
31528;BMP280;10206;48.012;10.030;2023-03-23T07:47:43;94309.47;;;17.89
31528;BMP280;10206;48.012;10.030;2023-03-23T07:50:09;94310.66;;;18.01
31528;BMP280;10206;48.012;10.030;2023-03-23T07:52:36;94317.38;;;17.81
31528;BMP280;10206;48.012;10.030;2023-03-23T07:55:04;94318.34;;;17.87
31528;BMP280;10206;48.012;10.030;2023-03-23T07:57:31;94305.53;;;17.94
31528;BMP280;10206;48.012;10.030;2023-03-23T07:59:58;94317.34;;;17.96
31528;BMP280;10206;48.012;10.030;2023-03-23T08:02:25;94325.53;;;17.94
31528;BMP280;10206;48.012;10.030;2023-03-23T08:04:52;94316.41;;;18.25
31528;BMP280;10206;48.012;10.030;2023-03-23T08:07:20;94317.69;;;18.39
31528;BMP280;10206;48.012;10.030;2023-03-23T08:09:47;94318.72;;;18.85
31528;BMP280;10206;48.012;10.030;2023-03-23T08:12:13;94321.06;;;18.93
31528;BMP280;10206;48.012;10.030;2023-03-23T08:14:40;94315.97;;;19.44
31528;BMP280;10206;48.012;10.030;2023-03-23T08:17:08;94328.44;;;19.65
31528;BMP280;10206;48.012;10.030;2023-03-23T08:19:35;94330.28;;;19.99
31528;BMP280;10206;48.012;10.030;2023-03-23T08:22:04;94334.53;;;20.24
31528;BMP280;10206;48.012;10.030;2023-03-23T08:24:31;94325.91;;;20.14
31528;BMP280;10206;48.012;10.030;2023-03-23T08:26:59;94333.91;;;19.82
31528;BMP280;10206;48.012;10.030;2023-03-23T08:29:25;94334.28;;;19.53
31528;BMP280;10206;48.012;10.030;2023-03-23T08:31:52;94331.28;;;19.47
31528;BMP280;10206;48.012;10.030;2023-03-23T08:34:19;94333.53;;;19.72
31528;BMP280;10206;48.012;10.030;2023-03-23T08:36:45;94338.81;;;19.86
31528;BMP280;10206;48.012;10.030;2023-03-23T08:39:12;94340.97;;;19.87
31528;BMP280;10206;48.012;10.030;2023-03-23T08:41:40;94341.91;;;19.96
31528;BMP280;10206;48.012;10.030;2023-03-23T08:44:06;94332.34;;;19.58
31528;BMP280;10206;48.012;10.030;2023-03-23T08:46:34;94323.41;;;19.79
31528;BMP280;10206;48.012;10.030;2023-03-23T08:49:00;94326.16;;;20.00
31528;BMP280;10206;48.012;10.030;2023-03-23T08:51:26;94328.19;;;20.43
31528;BMP280;10206;48.012;10.030;2023-03-23T08:53:53;94318.50;;;19.99
31528;BMP280;10206;48.012;10.030;2023-03-23T08:56:20;94323.78;;;20.58
31528;BMP280;10206;48.012;10.030;2023-03-23T08:58:46;94327.41;;;21.11
31528;BMP280;10206;48.012;10.030;2023-03-23T09:01:13;94334.13;;;20.79
31528;BMP280;10206;48.012;10.030;2023-03-23T09:03:39;94333.53;;;21.08
31528;BMP280;10206;48.012;10.030;2023-03-23T09:06:07;94333.78;;;21.16
31528;BMP280;10206;48.012;10.030;2023-03-23T09:08:34;94347.84;;;20.98
31528;BMP280;10206;48.012;10.030;2023-03-23T09:11:06;94344.66;;;20.84
31528;BMP280;10206;48.012;10.030;2023-03-23T09:13:33;94350.41;;;20.67
31528;BMP280;10206;48.012;10.030;2023-03-23T09:15:59;94349.50;;;20.84
31528;BMP280;10206;48.012;10.030;2023-03-23T09:18:25;94360.16;;;20.91
31528;BMP280;10206;48.012;10.030;2023-03-23T09:20:52;94359.94;;;20.62
31528;BMP280;10206;48.012;10.030;2023-03-23T09:23:19;94363.06;;;20.50
31528;BMP280;10206;48.012;10.030;2023-03-23T09:25:47;94371.84;;;20.66
31528;BMP280;10206;48.012;10.030;2023-03-23T09:28:13;94364.50;;;20.08
31528;BMP280;10206;48.012;10.030;2023-03-23T09:30:41;94367.78;;;20.24
31528;BMP280;10206;48.012;10.030;2023-03-23T09:33:08;94374.28;;;20.32
31528;BMP280;10206;48.012;10.030;2023-03-23T09:35:35;94372.34;;;20.82
31528;BMP280;10206;48.012;10.030;2023-03-23T09:38:05;94366.91;;;21.10
31528;BMP280;10206;48.012;10.030;2023-03-23T09:40:46;94367.53;;;20.61
31528;BMP280;10206;48.012;10.030;2023-03-23T09:49:50;94366.09;;;20.82
31528;BMP280;10206;48.012;10.030;2023-03-23T09:52:06;94361.69;;;20.51
31528;BMP280;10206;48.012;10.030;2023-03-23T09:54:36;94374.50;;;21.09
31528;BMP280;10206;48.012;10.030;2023-03-23T09:57:05;94372.81;;;20.98
31528;BMP280;10206;48.012;10.030;2023-03-23T09:59:58;94365.56;;;21.11
31528;BMP280;10206;48.012;10.030;2023-03-23T10:07:56;94361.53;;;20.69
31528;BMP280;10206;48.012;10.030;2023-03-23T10:10:33;94368.72;;;21.25
31528;BMP280;10206;48.012;10.030;2023-03-23T10:15:59;94383.03;;;21.41
31528;BMP280;10206;48.012;10.030;2023-03-23T10:18:47;94382.81;;;22.14
31528;BMP280;10206;48.012;10.030;2023-03-23T10:21:19;94378.38;;;21.24
31528;BMP280;10206;48.012;10.030;2023-03-23T10:23:49;94380.03;;;21.84
31528;BMP280;10206;48.012;10.030;2023-03-23T10:31:45;94379.38;;;21.60
31528;BMP280;10206;48.012;10.030;2023-03-23T10:34:21;94388.56;;;21.41
31528;BMP280;10206;48.012;10.030;2023-03-23T10:40:00;94383.34;;;21.79
31528;BMP280;10206;48.012;10.030;2023-03-23T10:42:35;94385.03;;;21.90
31528;BMP280;10206;48.012;10.030;2023-03-23T10:47:52;94385.69;;;21.37
31528;BMP280;10206;48.012;10.030;2023-03-23T10:50:24;94387.38;;;22.58
31528;BMP280;10206;48.012;10.030;2023-03-23T10:52:52;94390.72;;;22.85
31528;BMP280;10206;48.012;10.030;2023-03-23T10:55:22;94394.91;;;22.86
31528;BMP280;10206;48.012;10.030;2023-03-23T10:58:03;94383.59;;;22.16
31528;BMP280;10206;48.012;10.030;2023-03-23T11:00:31;94383.53;;;23.07
31528;BMP280;10206;48.012;10.030;2023-03-23T11:03:06;94382.50;;;22.91
31528;BMP280;10206;48.012;10.030;2023-03-23T11:08:18;94388.75;;;22.59
31528;BMP280;10206;48.012;10.030;2023-03-23T11:11:07;94387.09;;;23.12
31528;BMP280;10206;48.012;10.030;2023-03-23T11:13:33;94382.69;;;23.01
31528;BMP280;10206;48.012;10.030;2023-03-23T11:16:00;94389.06;;;22.42
31528;BMP280;10206;48.012;10.030;2023-03-23T11:21:02;94394.28;;;22.57
31528;BMP280;10206;48.012;10.030;2023-03-23T11:23:38;94403.69;;;22.42
31528;BMP280;10206;48.012;10.030;2023-03-23T11:28:42;94400.81;;;22.38
31528;BMP280;10206;48.012;10.030;2023-03-23T11:31:09;94401.38;;;22.05
31528;BMP280;10206;48.012;10.030;2023-03-23T11:36:57;94413.06;;;21.23
31528;BMP280;10206;48.012;10.030;2023-03-23T11:40:15;94403.13;;;21.65
31528;BMP280;10206;48.012;10.030;2023-03-23T11:42:34;94393.53;;;21.70
31528;BMP280;10206;48.012;10.030;2023-03-23T11:45:20;94405.66;;;21.83
31528;BMP280;10206;48.012;10.030;2023-03-23T11:47:53;94406.28;;;22.07
31528;BMP280;10206;48.012;10.030;2023-03-23T11:50:25;94403.16;;;21.41
31528;BMP280;10206;48.012;10.030;2023-03-23T11:53:13;94402.22;;;22.10
31528;BMP280;10206;48.012;10.030;2023-03-23T11:58:16;94408.00;;;22.49
31528;BMP280;10206;48.012;10.030;2023-03-23T12:00:56;94402.34;;;22.16
31528;BMP280;10206;48.012;10.030;2023-03-23T12:06:07;94407.28;;;21.40
31528;BMP280;10206;48.012;10.030;2023-03-23T12:09:01;94404.22;;;21.54
31528;BMP280;10206;48.012;10.030;2023-03-23T12:33:54;94396.75;;;21.88
31528;BMP280;10206;48.012;10.030;2023-03-23T12:36:24;94386.13;;;20.80
31528;BMP280;10206;48.012;10.030;2023-03-23T12:39:08;94378.56;;;21.30
31528;BMP280;10206;48.012;10.030;2023-03-23T12:44:58;94369.47;;;21.27
31528;BMP280;10206;48.012;10.030;2023-03-23T12:47:45;94370.44;;;21.64
31528;BMP280;10206;48.012;10.030;2023-03-23T12:50:20;94369.13;;;21.39
31528;BMP280;10206;48.012;10.030;2023-03-23T12:55:23;94358.59;;;21.61
31528;BMP280;10206;48.012;10.030;2023-03-23T12:58:02;94359.53;;;21.97
31528;BMP280;10206;48.012;10.030;2023-03-23T13:03:20;94353.91;;;21.68
31528;BMP280;10206;48.012;10.030;2023-03-23T13:05:53;94348.38;;;21.42
31528;BMP280;10206;48.012;10.030;2023-03-23T13:08:28;94341.69;;;21.79
31528;BMP280;10206;48.012;10.030;2023-03-23T13:11:00;94336.81;;;21.79
31528;BMP280;10206;48.012;10.030;2023-03-23T13:13:51;94342.25;;;21.73
31528;BMP280;10206;48.012;10.030;2023-03-23T13:16:42;94337.59;;;21.54
31528;BMP280;10206;48.012;10.030;2023-03-23T13:22:11;94344.59;;;22.42
31528;BMP280;10206;48.012;10.030;2023-03-23T13:24:55;94344.72;;;22.48
31528;BMP280;10206;48.012;10.030;2023-03-23T13:27:26;94331.81;;;22.01
31528;BMP280;10206;48.012;10.030;2023-03-23T13:29:57;94337.41;;;21.48
31528;BMP280;10206;48.012;10.030;2023-03-23T13:32:35;94340.34;;;21.28
31528;BMP280;10206;48.012;10.030;2023-03-23T13:35:12;94339.53;;;21.24
31528;BMP280;10206;48.012;10.030;2023-03-23T13:37:50;94340.75;;;21.17
31528;BMP280;10206;48.012;10.030;2023-03-23T13:40:30;94337.53;;;20.77
31528;BMP280;10206;48.012;10.030;2023-03-23T13:42:59;94347.19;;;20.76
31528;BMP280;10206;48.012;10.030;2023-03-23T13:48:18;94337.78;;;20.62
31528;BMP280;10206;48.012;10.030;2023-03-23T13:53:29;94330.28;;;20.90
31528;BMP280;10206;48.012;10.030;2023-03-23T13:56:21;94335.63;;;20.60
31528;BMP280;10206;48.012;10.030;2023-03-23T13:58:49;94329.81;;;20.74
31528;BMP280;10206;48.012;10.030;2023-03-23T14:01:30;94318.91;;;20.56
31528;BMP280;10206;48.012;10.030;2023-03-23T14:04:00;94321.44;;;20.72
31528;BMP280;10206;48.012;10.030;2023-03-23T14:06:27;94327.44;;;20.64
31528;BMP280;10206;48.012;10.030;2023-03-23T14:09:05;94321.34;;;20.93
31528;BMP280;10206;48.012;10.030;2023-03-23T14:11:33;94315.50;;;20.83
31528;BMP280;10206;48.012;10.030;2023-03-23T14:14:14;94316.88;;;20.59
31528;BMP280;10206;48.012;10.030;2023-03-23T14:16:42;94318.53;;;20.44
31528;BMP280;10206;48.012;10.030;2023-03-23T14:19:37;94319.00;;;20.60
31528;BMP280;10206;48.012;10.030;2023-03-23T14:22:03;94318.53;;;20.68
31528;BMP280;10206;48.012;10.030;2023-03-23T14:24:38;94317.63;;;20.37
31528;BMP280;10206;48.012;10.030;2023-03-23T14:27:21;94315.59;;;20.62
31528;BMP280;10206;48.012;10.030;2023-03-23T14:30:01;94308.63;;;20.15
31528;BMP280;10206;48.012;10.030;2023-03-23T14:32:29;94319.09;;;20.62
31528;BMP280;10206;48.012;10.030;2023-03-23T14:34:57;94324.25;;;20.74
31528;BMP280;10206;48.012;10.030;2023-03-23T14:37:24;94310.66;;;20.58
31528;BMP280;10206;48.012;10.030;2023-03-23T14:39:53;94320.72;;;20.71
31528;BMP280;10206;48.012;10.030;2023-03-23T14:42:26;94329.75;;;20.05
31528;BMP280;10206;48.012;10.030;2023-03-23T14:44:54;94327.03;;;20.50
31528;BMP280;10206;48.012;10.030;2023-03-23T14:47:27;94330.69;;;20.57
31528;BMP280;10206;48.012;10.030;2023-03-23T14:49:56;94323.19;;;20.37
31528;BMP280;10206;48.012;10.030;2023-03-23T14:52:26;94326.16;;;20.00
31528;BMP280;10206;48.012;10.030;2023-03-23T14:54:52;94323.94;;;20.18
31528;BMP280;10206;48.012;10.030;2023-03-23T14:57:27;94316.09;;;19.89
31528;BMP280;10206;48.012;10.030;2023-03-23T14:59:54;94312.44;;;19.83
31528;BMP280;10206;48.012;10.030;2023-03-23T15:02:28;94316.81;;;19.68
31528;BMP280;10206;48.012;10.030;2023-03-23T15:05:16;94317.16;;;19.78
31528;BMP280;10206;48.012;10.030;2023-03-23T15:07:47;94321.31;;;20.22
31528;BMP280;10206;48.012;10.030;2023-03-23T15:10:20;94311.78;;;20.06
31528;BMP280;10206;48.012;10.030;2023-03-23T15:12:48;94319.13;;;20.19
31528;BMP280;10206;48.012;10.030;2023-03-23T15:15:40;94317.78;;;20.20
31528;BMP280;10206;48.012;10.030;2023-03-23T15:18:34;94310.63;;;20.13
31528;BMP280;10206;48.012;10.030;2023-03-23T15:21:10;94308.31;;;20.05
31528;BMP280;10206;48.012;10.030;2023-03-23T15:23:42;94311.28;;;20.11
31528;BMP280;10206;48.012;10.030;2023-03-23T15:29:14;94309.53;;;20.00
31528;BMP280;10206;48.012;10.030;2023-03-23T15:31:47;94312.38;;;19.20
31528;BMP280;10206;48.012;10.030;2023-03-23T15:36:59;94331.19;;;19.43
31528;BMP280;10206;48.012;10.030;2023-03-23T15:39:26;94321.44;;;19.03
31528;BMP280;10206;48.012;10.030;2023-03-23T15:41:55;94328.25;;;19.39
31528;BMP280;10206;48.012;10.030;2023-03-23T15:44:26;94318.63;;;19.20
31528;BMP280;10206;48.012;10.030;2023-03-23T15:47:02;94326.97;;;19.22
31528;BMP280;10206;48.012;10.030;2023-03-23T15:49:29;94320.41;;;18.75
31528;BMP280;10206;48.012;10.030;2023-03-23T15:51:55;94320.50;;;18.96
31528;BMP280;10206;48.012;10.030;2023-03-23T15:54:22;94314.97;;;18.96
31528;BMP280;10206;48.012;10.030;2023-03-23T15:56:48;94314.06;;;18.90
31528;BMP280;10206;48.012;10.030;2023-03-23T15:59:14;94305.94;;;18.76